sensor_id;sensor_type;location;lat;lon;timestamp;pressure;altitude;pressure_sealevel;temperature;humidity
74327;BME280;62745;51.060;13.786;2023-08-07T00:00:05;98993.63;;;14.58;100.00
74327;BME280;62745;51.060;13.786;2023-08-07T00:02:30;98988.59;;;14.61;100.00
74327;BME280;62745;51.060;13.786;2023-08-07T00:04:56;98988.81;;;14.60;100.00
74327;BME280;62745;51.060;13.786;2023-08-07T00:07:22;98981.56;;;14.60;100.00
74327;BME280;62745;51.060;13.786;2023-08-07T00:09:49;98985.91;;;14.61;100.00
74327;BME280;62745;51.060;13.786;2023-08-07T00:12:15;98986.13;;;14.60;100.00
74327;BME280;62745;51.060;13.786;2023-08-07T00:14:40;98991.28;;;14.61;100.00
74327;BME280;62745;51.060;13.786;2023-08-07T00:17:05;98997.22;;;14.63;100.00
74327;BME280;62745;51.060;13.786;2023-08-07T00:19:31;98993.47;;;14.64;100.00
74327;BME280;62745;51.060;13.786;2023-08-07T00:21:56;98980.84;;;14.65;100.00
74327;BME280;62745;51.060;13.786;2023-08-07T00:24:21;98989.19;;;14.68;100.00
74327;BME280;62745;51.060;13.786;2023-08-07T00:26:46;98983.53;;;14.65;100.00
74327;BME280;62745;51.060;13.786;2023-08-07T00:29:12;98992.16;;;14.67;100.00
74327;BME280;62745;51.060;13.786;2023-08-07T00:31:37;98997.28;;;14.68;100.00
74327;BME280;62745;51.060;13.786;2023-08-07T00:34:02;98994.06;;;14.71;100.00
74327;BME280;62745;51.060;13.786;2023-08-07T00:36:29;98996.72;;;14.66;100.00
74327;BME280;62745;51.060;13.786;2023-08-07T00:38:54;98994.03;;;14.66;100.00
74327;BME280;62745;51.060;13.786;2023-08-07T00:41:20;98989.19;;;14.68;100.00
74327;BME280;62745;51.060;13.786;2023-08-07T00:43:45;98993.50;;;14.69;100.00
74327;BME280;62745;51.060;13.786;2023-08-07T00:46:10;98995.91;;;14.66;100.00
74327;BME280;62745;51.060;13.786;2023-08-07T00:48:35;98988.09;;;14.64;100.00
74327;BME280;62745;51.060;13.786;2023-08-07T00:51:02;98982.81;;;14.53;100.00
74327;BME280;62745;51.060;13.786;2023-08-07T00:53:28;98990.22;;;14.62;100.00
74327;BME280;62745;51.060;13.786;2023-08-07T00:55:54;98993.47;;;14.64;100.00
74327;BME280;62745;51.060;13.786;2023-08-07T00:58:19;98985.25;;;14.54;100.00
74327;BME280;62745;51.060;13.786;2023-08-07T01:00:44;98991.19;;;14.56;100.00
74327;BME280;62745;51.060;13.786;2023-08-07T01:03:11;98985.94;;;14.44;100.00
74327;BME280;62745;51.060;13.786;2023-08-07T01:05:37;98992.94;;;14.46;100.00
74327;BME280;62745;51.060;13.786;2023-08-07T01:08:03;98997.56;;;14.50;100.00
74327;BME280;62745;51.060;13.786;2023-08-07T01:13:18;98989.75;;;14.49;100.00
74327;BME280;62745;51.060;13.786;2023-08-07T01:15:46;98989.19;;;14.47;100.00
74327;BME280;62745;51.060;13.786;2023-08-07T01:18:15;98982.56;;;14.37;100.00
74327;BME280;62745;51.060;13.786;2023-08-07T01:20:41;98990.88;;;14.36;100.00
74327;BME280;62745;51.060;13.786;2023-08-07T01:23:06;98986.81;;;14.33;100.00
74327;BME280;62745;51.060;13.786;2023-08-07T01:25:31;98984.38;;;14.32;100.00
74327;BME280;62745;51.060;13.786;2023-08-07T01:28:08;98983.81;;;14.30;100.00
74327;BME280;62745;51.060;13.786;2023-08-07T01:30:38;98983.72;;;14.25;100.00
74327;BME280;62745;51.060;13.786;2023-08-07T01:33:13;98983.41;;;14.21;100.00
74327;BME280;62745;51.060;13.786;2023-08-07T01:35:47;98987.47;;;14.24;100.00
74327;BME280;62745;51.060;13.786;2023-08-07T01:38:13;98994.97;;;14.22;100.00
74327;BME280;62745;51.060;13.786;2023-08-07T01:40:40;98986.59;;;14.18;100.00
74327;BME280;62745;51.060;13.786;2023-08-07T01:43:07;98990.91;;;14.19;100.00
74327;BME280;62745;51.060;13.786;2023-08-07T01:45:32;98991.16;;;14.18;100.00
74327;BME280;62745;51.060;13.786;2023-08-07T01:47:57;98989.53;;;14.17;100.00
74327;BME280;62745;51.060;13.786;2023-08-07T01:50:24;98987.91;;;14.15;100.00
74327;BME280;62745;51.060;13.786;2023-08-07T01:52:50;99000.03;;;14.18;100.00
74327;BME280;62745;51.060;13.786;2023-08-07T01:55:17;98992.53;;;14.20;100.00
74327;BME280;62745;51.060;13.786;2023-08-07T01:57:42;98994.41;;;14.20;100.00
74327;BME280;62745;51.060;13.786;2023-08-07T02:00:08;98994.16;;;14.21;100.00
74327;BME280;62745;51.060;13.786;2023-08-07T02:02:35;98993.91;;;14.23;100.00
74327;BME280;62745;51.060;13.786;2023-08-07T02:05:00;99004.16;;;14.26;100.00
74327;BME280;62745;51.060;13.786;2023-08-07T02:07:25;99006.38;;;14.29;100.00
74327;BME280;62745;51.060;13.786;2023-08-07T02:09:51;98997.25;;;14.30;100.00
74327;BME280;62745;51.060;13.786;2023-08-07T02:12:16;98999.38;;;14.28;100.00
74327;BME280;62745;51.060;13.786;2023-08-07T02:14:41;98990.56;;;14.32;100.00
74327;BME280;62745;51.060;13.786;2023-08-07T02:17:07;98994.31;;;14.31;100.00
74327;BME280;62745;51.060;13.786;2023-08-07T02:19:32;98997.88;;;14.37;100.00
74327;BME280;62745;51.060;13.786;2023-08-07T02:21:57;99000.31;;;14.38;100.00
74327;BME280;62745;51.060;13.786;2023-08-07T02:24:23;99002.50;;;14.41;100.00
74327;BME280;62745;51.060;13.786;2023-08-07T02:26:48;99002.50;;;14.41;100.00
74327;BME280;62745;51.060;13.786;2023-08-07T02:29:13;99002.88;;;14.45;100.00
74327;BME280;62745;51.060;13.786;2023-08-07T02:31:39;99006.59;;;14.44;100.00
74327;BME280;62745;51.060;13.786;2023-08-07T02:34:04;99001.81;;;14.46;100.00
74327;BME280;62745;51.060;13.786;2023-08-07T02:36:29;99000.19;;;14.45;100.00
74327;BME280;62745;51.060;13.786;2023-08-07T02:38:54;98999.13;;;14.46;100.00
74327;BME280;62745;51.060;13.786;2023-08-07T02:41:20;99003.19;;;14.49;100.00
74327;BME280;62745;51.060;13.786;2023-08-07T02:43:45;99006.69;;;14.49;100.00
74327;BME280;62745;51.060;13.786;2023-08-07T02:46:10;99006.38;;;14.46;100.00
74327;BME280;62745;51.060;13.786;2023-08-07T02:51:57;99009.44;;;14.54;100.00
74327;BME280;62745;51.060;13.786;2023-08-07T02:54:22;99008.63;;;14.54;100.00
74327;BME280;62745;51.060;13.786;2023-08-07T02:56:48;99008.06;;;14.52;100.00
74327;BME280;62745;51.060;13.786;2023-08-07T02:59:14;98999.44;;;14.50;100.00
74327;BME280;62745;51.060;13.786;2023-08-07T03:01:39;99016.88;;;14.47;100.00
74327;BME280;62745;51.060;13.786;2023-08-07T03:04:05;99000.06;;;14.40;100.00
74327;BME280;62745;51.060;13.786;2023-08-07T03:06:30;99013.84;;;14.43;100.00
74327;BME280;62745;51.060;13.786;2023-08-07T03:08:56;99009.06;;;14.29;100.00
74327;BME280;62745;51.060;13.786;2023-08-07T03:11:21;99004.59;;;14.18;100.00
74327;BME280;62745;51.060;13.786;2023-08-07T03:13:46;99012.09;;;14.15;100.00
74327;BME280;62745;51.060;13.786;2023-08-07T03:16:12;99033.16;;;14.24;100.00
74327;BME280;62745;51.060;13.786;2023-08-07T03:18:37;99044.31;;;14.32;100.00
74327;BME280;62745;51.060;13.786;2023-08-07T03:21:02;99051.88;;;14.19;100.00
74327;BME280;62745;51.060;13.786;2023-08-07T03:23:28;99058.13;;;13.91;100.00
74327;BME280;62745;51.060;13.786;2023-08-07T03:26:07;99069.09;;;13.89;100.00
74327;BME280;62745;51.060;13.786;2023-08-07T03:28:34;99071.69;;;13.67;100.00
74327;BME280;62745;51.060;13.786;2023-08-07T03:31:00;99078.34;;;13.65;100.00
74327;BME280;62745;51.060;13.786;2023-08-07T03:33:25;99082.22;;;13.57;100.00
74327;BME280;62745;51.060;13.786;2023-08-07T03:35:50;99079.06;;;13.60;100.00
74327;BME280;62745;51.060;13.786;2023-08-07T03:38:16;99085.47;;;13.59;100.00
74327;BME280;62745;51.060;13.786;2023-08-07T03:40:41;99088.59;;;13.68;100.00
74327;BME280;62745;51.060;13.786;2023-08-07T03:43:07;99095.28;;;13.65;100.00
74327;BME280;62745;51.060;13.786;2023-08-07T03:45:32;99095.75;;;13.62;100.00
74327;BME280;62745;51.060;13.786;2023-08-07T03:47:57;99104.03;;;13.61;100.00
74327;BME280;62745;51.060;13.786;2023-08-07T03:50:22;99102.06;;;13.56;100.00
74327;BME280;62745;51.060;13.786;2023-08-07T03:52:48;99109.38;;;13.44;100.00
74327;BME280;62745;51.060;13.786;2023-08-07T03:55:13;99099.66;;;13.43;100.00
74327;BME280;62745;51.060;13.786;2023-08-07T03:57:38;99107.94;;;13.41;100.00
74327;BME280;62745;51.060;13.786;2023-08-07T04:00:04;99107.25;;;13.46;100.00
74327;BME280;62745;51.060;13.786;2023-08-07T04:02:29;99113.88;;;13.43;100.00
74327;BME280;62745;51.060;13.786;2023-08-07T04:04:55;99110.19;;;13.44;100.00
74327;BME280;62745;51.060;13.786;2023-08-07T04:07:20;99113.19;;;13.48;100.00
74327;BME280;62745;51.060;13.786;2023-08-07T04:09:45;99109.69;;;13.47;100.00
74327;BME280;62745;51.060;13.786;2023-08-07T04:12:11;99113.53;;;13.51;100.00
74327;BME280;62745;51.060;13.786;2023-08-07T04:14:36;99113.38;;;13.58;100.00
74327;BME280;62745;51.060;13.786;2023-08-07T04:17:01;99115.03;;;13.76;100.00
74327;BME280;62745;51.060;13.786;2023-08-07T04:19:27;99119.59;;;13.75;100.00
74327;BME280;62745;51.060;13.786;2023-08-07T04:21:53;99124.03;;;13.81;100.00
74327;BME280;62745;51.060;13.786;2023-08-07T04:24:18;99119.03;;;13.73;100.00
74327;BME280;62745;51.060;13.786;2023-08-07T04:26:43;99122.03;;;13.77;100.00
74327;BME280;62745;51.060;13.786;2023-08-07T04:29:08;99122.38;;;13.80;100.00
74327;BME280;62745;51.060;13.786;2023-08-07T04:31:34;99128.09;;;13.84;100.00
74327;BME280;62745;51.060;13.786;2023-08-07T04:33:59;99122.38;;;13.80;100.00
74327;BME280;62745;51.060;13.786;2023-08-07T04:36:25;99134.84;;;13.87;100.00
74327;BME280;62745;51.060;13.786;2023-08-07T04:38:50;99141.91;;;13.93;100.00
74327;BME280;62745;51.060;13.786;2023-08-07T04:41:16;99135.84;;;13.97;100.00
74327;BME280;62745;51.060;13.786;2023-08-07T04:43:41;99144.63;;;14.09;100.00
74327;BME280;62745;51.060;13.786;2023-08-07T04:48:43;99138.38;;;14.04;100.00
74327;BME280;62745;51.060;13.786;2023-08-07T04:51:08;99147.81;;;14.06;100.00
74327;BME280;62745;51.060;13.786;2023-08-07T04:56:55;99150.81;;;14.10;100.00
74327;BME280;62745;51.060;13.786;2023-08-07T04:59:20;99151.75;;;14.15;100.00
74327;BME280;62745;51.060;13.786;2023-08-07T05:01:45;99151.50;;;14.17;100.00
74327;BME280;62745;51.060;13.786;2023-08-07T05:04:10;99151.75;;;14.15;100.00
74327;BME280;62745;51.060;13.786;2023-08-07T05:06:36;99156.38;;;14.20;100.00
74327;BME280;62745;51.060;13.786;2023-08-07T05:09:01;99154.50;;;14.21;100.00
74327;BME280;62745;51.060;13.786;2023-08-07T05:11:27;99162.66;;;14.26;100.00
74327;BME280;62745;51.060;13.786;2023-08-07T05:13:52;99153.53;;;14.27;100.00
74327;BME280;62745;51.060;13.786;2023-08-07T05:16:17;99156.22;;;14.27;100.00
74327;BME280;62745;51.060;13.786;2023-08-07T05:18:44;99159.50;;;14.29;100.00
74327;BME280;62745;51.060;13.786;2023-08-07T05:21:09;99158.44;;;14.30;100.00
74327;BME280;62745;51.060;13.786;2023-08-07T05:23:35;99169.59;;;14.38;100.00
74327;BME280;62745;51.060;13.786;2023-08-07T05:26:01;99166.53;;;14.63;100.00
74327;BME280;62745;51.060;13.786;2023-08-07T05:28:27;99179.31;;;14.56;100.00
74327;BME280;62745;51.060;13.786;2023-08-07T05:30:52;99175.25;;;14.54;100.00
74327;BME280;62745;51.060;13.786;2023-08-07T05:33:17;99173.28;;;14.49;100.00
74327;BME280;62745;51.060;13.786;2023-08-07T05:35:43;99171.50;;;14.55;100.00
74327;BME280;62745;51.060;13.786;2023-08-07T05:38:08;99183.06;;;14.55;100.00
74327;BME280;62745;51.060;13.786;2023-08-07T05:40:33;99182.56;;;14.58;100.00
74327;BME280;62745;51.060;13.786;2023-08-07T05:43:01;99181.94;;;14.68;100.00
74327;BME280;62745;51.060;13.786;2023-08-07T05:45:35;99181.63;;;14.64;100.00
74327;BME280;62745;51.060;13.786;2023-08-07T05:48:00;99197.50;;;14.66;100.00
74327;BME280;62745;51.060;13.786;2023-08-07T05:50:26;99197.16;;;14.62;100.00
74327;BME280;62745;51.060;13.786;2023-08-07T06:24:39;99236.81;;;14.89;100.00
74327;BME280;62745;51.060;13.786;2023-08-07T06:27:05;99243.59;;;14.91;100.00
74327;BME280;62745;51.060;13.786;2023-08-07T06:29:30;99241.00;;;14.96;100.00
74327;BME280;62745;51.060;13.786;2023-08-07T06:31:56;99227.38;;;14.86;100.00
74327;BME280;62745;51.060;13.786;2023-08-07T06:34:21;99247.81;;;15.04;100.00
74327;BME280;62745;51.060;13.786;2023-08-07T06:36:46;99253.63;;;15.13;100.00
74327;BME280;62745;51.060;13.786;2023-08-07T06:39:11;99246.38;;;15.13;100.00
74327;BME280;62745;51.060;13.786;2023-08-07T06:41:37;99244.75;;;15.12;100.00
74327;BME280;62745;51.060;13.786;2023-08-07T06:44:02;99249.44;;;15.22;100.00
74327;BME280;62745;51.060;13.786;2023-08-07T06:46:28;99258.75;;;15.14;100.00
74327;BME280;62745;51.060;13.786;2023-08-07T06:48:53;99260.50;;;15.25;100.00
74327;BME280;62745;51.060;13.786;2023-08-07T06:51:19;99261.75;;;15.34;100.00
74327;BME280;62745;51.060;13.786;2023-08-07T06:53:44;99263.19;;;15.42;100.00
74327;BME280;62745;51.060;13.786;2023-08-07T06:56:09;99267.25;;;15.45;100.00
74327;BME280;62745;51.060;13.786;2023-08-07T06:58:35;99265.31;;;15.40;100.00
74327;BME280;62745;51.060;13.786;2023-08-07T07:01:00;99271.81;;;15.44;100.00
74327;BME280;62745;51.060;13.786;2023-08-07T07:03:25;99273.03;;;15.53;100.00
74327;BME280;62745;51.060;13.786;2023-08-07T07:05:50;99278.72;;;15.57;100.00
74327;BME280;62745;51.060;13.786;2023-08-07T07:08:16;99276.78;;;15.52;100.00
74327;BME280;62745;51.060;13.786;2023-08-07T07:10:41;99270.28;;;15.65;100.00
74327;BME280;62745;51.060;13.786;2023-08-07T07:13:06;99275.59;;;15.82;100.00
74327;BME280;62745;51.060;13.786;2023-08-07T07:15:34;99281.56;;;15.84;100.00
74327;BME280;62745;51.060;13.786;2023-08-07T07:18:00;99281.66;;;15.94;100.00
74327;BME280;62745;51.060;13.786;2023-08-07T07:20:25;99287.38;;;15.98;100.00
74327;BME280;62745;51.060;13.786;2023-08-07T07:22:52;99284.56;;;15.87;100.00
74327;BME280;62745;51.060;13.786;2023-08-07T07:25:17;99279.06;;;15.99;100.00
74327;BME280;62745;51.060;13.786;2023-08-07T07:27:42;99281.78;;;16.04;100.00
74327;BME280;62745;51.060;13.786;2023-08-07T07:30:08;99287.22;;;16.09;100.00
74327;BME280;62745;51.060;13.786;2023-08-07T07:32:34;99293.94;;;16.07;100.00
74327;BME280;62745;51.060;13.786;2023-08-07T07:34:59;99280.22;;;15.86;100.00
74327;BME280;62745;51.060;13.786;2023-08-07T07:37:25;99284.16;;;15.79;100.00
74327;BME280;62745;51.060;13.786;2023-08-07T07:39:50;99293.34;;;16.00;100.00
74327;BME280;62745;51.060;13.786;2023-08-07T07:42:15;99312.69;;;16.18;100.00
74327;BME280;62745;51.060;13.786;2023-08-07T07:44:41;99298.56;;;16.11;100.00
74327;BME280;62745;51.060;13.786;2023-08-07T07:47:07;99313.88;;;16.06;100.00
74327;BME280;62745;51.060;13.786;2023-08-07T07:49:33;99313.88;;;16.06;100.00
74327;BME280;62745;51.060;13.786;2023-08-07T07:51:58;99324.78;;;16.16;100.00
74327;BME280;62745;51.060;13.786;2023-08-07T07:54:23;99332.31;;;16.14;100.00
74327;BME280;62745;51.060;13.786;2023-08-07T07:56:49;99312.59;;;15.91;100.00
74327;BME280;62745;51.060;13.786;2023-08-07T07:59:14;99326.63;;;15.93;100.00
74327;BME280;62745;51.060;13.786;2023-08-07T08:01:39;99334.25;;;15.97;100.00
74327;BME280;62745;51.060;13.786;2023-08-07T08:04:05;99324.34;;;16.02;100.00
74327;BME280;62745;51.060;13.786;2023-08-07T08:06:30;99338.25;;;16.16;100.00
74327;BME280;62745;51.060;13.786;2023-08-07T08:08:56;99334.34;;;16.29;100.00
74327;BME280;62745;51.060;13.786;2023-08-07T08:11:21;99371.66;;;16.37;100.00
74327;BME280;62745;51.060;13.786;2023-08-07T08:13:46;99351.16;;;16.36;100.00
74327;BME280;62745;51.060;13.786;2023-08-07T08:16:12;99334.44;;;16.34;100.00
74327;BME280;62745;51.060;13.786;2023-08-07T08:18:37;99349.75;;;16.55;100.00
74327;BME280;62745;51.060;13.786;2023-08-07T08:21:02;99344.09;;;16.57;100.00
74327;BME280;62745;51.060;13.786;2023-08-07T08:23:28;99340.66;;;16.83;100.00
74327;BME280;62745;51.060;13.786;2023-08-07T08:25:53;99339.22;;;16.75;100.00
74327;BME280;62745;51.060;13.786;2023-08-07T08:28:19;99356.16;;;16.71;100.00
74327;BME280;62745;51.060;13.786;2023-08-07T08:30:44;99353.81;;;16.79;100.00
74327;BME280;62745;51.060;13.786;2023-08-07T08:33:10;99351.50;;;16.66;100.00
74327;BME280;62745;51.060;13.786;2023-08-07T08:35:38;99365.59;;;16.46;100.00
74327;BME280;62745;51.060;13.786;2023-08-07T08:38:03;99360.19;;;16.46;100.00
74327;BME280;62745;51.060;13.786;2023-08-07T08:40:30;99354.66;;;16.36;100.00
74327;BME280;62745;51.060;13.786;2023-08-07T08:42:56;99366.63;;;16.45;100.00
74327;BME280;62745;51.060;13.786;2023-08-07T08:45:25;99376.03;;;16.65;100.00
74327;BME280;62745;51.060;13.786;2023-08-07T08:47:51;99364.59;;;16.58;100.00
74327;BME280;62745;51.060;13.786;2023-08-07T08:50:18;99367.81;;;16.76;100.00
74327;BME280;62745;51.060;13.786;2023-08-07T08:52:44;99359.56;;;16.88;100.00
74327;BME280;62745;51.060;13.786;2023-08-07T08:55:11;99361.56;;;16.98;98.82
74327;BME280;62745;51.060;13.786;2023-08-07T08:57:38;99370.38;;;17.20;100.00
74327;BME280;62745;51.060;13.786;2023-08-07T09:00:05;99377.06;;;17.44;98.33
74327;BME280;62745;51.060;13.786;2023-08-07T09:02:41;99373.88;;;17.48;96.60
74327;BME280;62745;51.060;13.786;2023-08-07T09:05:07;99377.00;;;17.34;97.66
74327;BME280;62745;51.060;13.786;2023-08-07T09:07:32;99380.00;;;17.11;96.51
74327;BME280;62745;51.060;13.786;2023-08-07T09:09:59;99381.75;;;16.95;96.62
74327;BME280;62745;51.060;13.786;2023-08-07T09:12:26;99381.25;;;16.98;97.61
74327;BME280;62745;51.060;13.786;2023-08-07T09:14:56;99392.13;;;17.08;97.44
74327;BME280;62745;51.060;13.786;2023-08-07T09:17:24;99387.44;;;17.26;98.80
74327;BME280;62745;51.060;13.786;2023-08-07T09:19:52;99391.22;;;17.25;98.51
74327;BME280;62745;51.060;13.786;2023-08-07T09:22:19;99392.25;;;17.19;96.26
74327;BME280;62745;51.060;13.786;2023-08-07T09:24:44;99386.72;;;17.35;94.16
74327;BME280;62745;51.060;13.786;2023-08-07T09:27:09;99393.09;;;17.24;93.33
74327;BME280;62745;51.060;13.786;2023-08-07T09:29:35;99384.16;;;17.56;93.39
74327;BME280;62745;51.060;13.786;2023-08-07T09:32:09;99380.25;;;17.68;93.55
74327;BME280;62745;51.060;13.786;2023-08-07T09:34:34;99405.81;;;17.29;95.21
74327;BME280;62745;51.060;13.786;2023-08-07T09:37:01;99385.13;;;17.39;95.03
74327;BME280;62745;51.060;13.786;2023-08-07T09:39:26;99386.03;;;17.50;93.58
74327;BME280;62745;51.060;13.786;2023-08-07T09:41:52;99383.22;;;17.40;92.42
74327;BME280;62745;51.060;13.786;2023-08-07T09:44:17;99372.91;;;17.64;89.12
74327;BME280;62745;51.060;13.786;2023-08-07T09:46:44;99379.03;;;17.91;88.99
74327;BME280;62745;51.060;13.786;2023-08-07T09:49:09;99385.84;;;17.99;89.05
74327;BME280;62745;51.060;13.786;2023-08-07T09:51:45;99390.00;;;17.74;91.31
74327;BME280;62745;51.060;13.786;2023-08-07T09:54:11;99382.81;;;17.90;90.46
74327;BME280;62745;51.060;13.786;2023-08-07T09:56:38;99418.63;;;17.43;90.76
74327;BME280;62745;51.060;13.786;2023-08-07T09:59:04;99403.16;;;17.66;89.70
74327;BME280;62745;51.060;13.786;2023-08-07T10:01:29;99398.19;;;17.85;90.99
74327;BME280;62745;51.060;13.786;2023-08-07T10:03:55;99394.06;;;17.77;89.33
74327;BME280;62745;51.060;13.786;2023-08-07T10:06:20;99395.69;;;17.78;89.25
74327;BME280;62745;51.060;13.786;2023-08-07T10:08:46;99389.56;;;17.88;88.34
74327;BME280;62745;51.060;13.786;2023-08-07T10:11:12;99390.81;;;18.17;90.82
74327;BME280;62745;51.060;13.786;2023-08-07T10:13:40;99392.78;;;17.85;89.44
74327;BME280;62745;51.060;13.786;2023-08-07T10:16:06;99407.22;;;17.31;92.85
74327;BME280;62745;51.060;13.786;2023-08-07T10:18:32;99413.53;;;17.15;93.33
74327;BME280;62745;51.060;13.786;2023-08-07T10:20:57;99399.34;;;17.30;92.69
74327;BME280;62745;51.060;13.786;2023-08-07T10:23:25;99389.03;;;17.22;92.21
74327;BME280;62745;51.060;13.786;2023-08-07T10:25:51;99404.88;;;17.45;91.83
74327;BME280;62745;51.060;13.786;2023-08-07T10:28:18;99403.09;;;17.61;90.49
74327;BME280;62745;51.060;13.786;2023-08-07T10:30:45;99406.03;;;17.54;90.70
74327;BME280;62745;51.060;13.786;2023-08-07T10:33:12;99441.53;;;17.36;92.00
74327;BME280;62745;51.060;13.786;2023-08-07T10:35:47;99424.94;;;16.73;100.00
74327;BME280;62745;51.060;13.786;2023-08-07T10:38:22;99419.69;;;16.01;100.00
74327;BME280;62745;51.060;13.786;2023-08-07T10:41:07;99418.50;;;15.75;100.00
74327;BME280;62745;51.060;13.786;2023-08-07T10:43:43;99416.63;;;15.76;100.00
74327;BME280;62745;51.060;13.786;2023-08-07T10:46:15;99419.81;;;16.11;100.00
74327;BME280;62745;51.060;13.786;2023-08-07T10:48:47;99413.78;;;16.65;100.00
74327;BME280;62745;51.060;13.786;2023-08-07T10:51:18;99413.69;;;17.03;100.00
74327;BME280;62745;51.060;13.786;2023-08-07T10:53:46;99418.41;;;16.91;100.00
74327;BME280;62745;51.060;13.786;2023-08-07T10:56:38;99427.91;;;16.50;100.00
74327;BME280;62745;51.060;13.786;2023-08-07T10:59:10;99413.09;;;16.31;100.00
74327;BME280;62745;51.060;13.786;2023-08-07T11:04:12;99419.25;;;16.48;100.00
74327;BME280;62745;51.060;13.786;2023-08-07T11:06:39;99422.69;;;16.87;100.00
74327;BME280;62745;51.060;13.786;2023-08-07T11:09:06;99419.13;;;17.08;100.00
74327;BME280;62745;51.060;13.786;2023-08-07T11:14:05;99410.88;;;17.52;100.00
74327;BME280;62745;51.060;13.786;2023-08-07T11:16:30;99400.41;;;17.61;100.00
74327;BME280;62745;51.060;13.786;2023-08-07T11:18:55;99417.81;;;17.43;100.00
74327;BME280;62745;51.060;13.786;2023-08-07T11:21:21;99400.53;;;17.44;100.00
74327;BME280;62745;51.060;13.786;2023-08-07T11:23:47;99413.28;;;17.81;99.64
74327;BME280;62745;51.060;13.786;2023-08-07T11:26:12;99414.97;;;17.92;97.82
74327;BME280;62745;51.060;13.786;2023-08-07T11:28:37;99400.06;;;17.84;94.53
74327;BME280;62745;51.060;13.786;2023-08-07T11:31:02;99407.25;;;17.68;93.85
74327;BME280;62745;51.060;13.786;2023-08-07T11:33:28;99419.53;;;17.54;93.34
74327;BME280;62745;51.060;13.786;2023-08-07T11:35:54;99422.97;;;17.44;95.52
74327;BME280;62745;51.060;13.786;2023-08-07T11:38:33;99436.34;;;17.02;100.00
74327;BME280;62745;51.060;13.786;2023-08-07T11:41:02;99437.41;;;16.36;100.00
74327;BME280;62745;51.060;13.786;2023-08-07T11:43:29;99435.09;;;16.06;100.00
74327;BME280;62745;51.060;13.786;2023-08-07T11:45:56;99435.44;;;15.92;100.00
74327;BME280;62745;51.060;13.786;2023-08-07T11:48:26;99436.44;;;15.86;100.00
74327;BME280;62745;51.060;13.786;2023-08-07T11:50:53;99440.28;;;15.74;100.00
74327;BME280;62745;51.060;13.786;2023-08-07T11:53:20;99449.69;;;15.71;100.00
74327;BME280;62745;51.060;13.786;2023-08-07T11:55:56;99448.22;;;15.63;100.00
74327;BME280;62745;51.060;13.786;2023-08-07T11:58:22;99448.03;;;15.70;100.00
74327;BME280;62745;51.060;13.786;2023-08-07T12:00:47;99450.09;;;15.80;100.00
74327;BME280;62745;51.060;13.786;2023-08-07T12:09:11;99461.22;;;15.55;100.00
74327;BME280;62745;51.060;13.786;2023-08-07T12:11:38;99435.41;;;15.71;100.00
74327;BME280;62745;51.060;13.786;2023-08-07T12:14:04;99465.41;;;16.13;100.00
74327;BME280;62745;51.060;13.786;2023-08-07T12:16:38;99447.34;;;16.74;100.00
74327;BME280;62745;51.060;13.786;2023-08-07T12:19:07;99426.72;;;17.43;100.00
74327;BME280;62745;51.060;13.786;2023-08-07T12:21:35;99432.31;;;18.48;100.00
74327;BME280;62745;51.060;13.786;2023-08-07T12:24:01;99455.50;;;18.91;100.00
74327;BME280;62745;51.060;13.786;2023-08-07T12:26:26;99435.19;;;18.26;100.00
74327;BME280;62745;51.060;13.786;2023-08-07T12:28:53;99441.34;;;17.80;100.00
74327;BME280;62745;51.060;13.786;2023-08-07T12:31:19;99439.47;;;17.48;100.00
74327;BME280;62745;51.060;13.786;2023-08-07T12:33:44;99447.00;;;17.46;100.00
74327;BME280;62745;51.060;13.786;2023-08-07T12:36:09;99403.34;;;16.95;100.00
74327;BME280;62745;51.060;13.786;2023-08-07T12:38:35;99418.22;;;16.98;100.00
74327;BME280;62745;51.060;13.786;2023-08-07T12:41:04;99416.72;;;16.85;100.00
74327;BME280;62745;51.060;13.786;2023-08-07T12:43:29;99456.13;;;16.86;100.00
74327;BME280;62745;51.060;13.786;2023-08-07T12:45:54;99461.16;;;16.61;100.00
74327;BME280;62745;51.060;13.786;2023-08-07T12:48:20;99435.47;;;16.31;100.00
74327;BME280;62745;51.060;13.786;2023-08-07T12:50:45;99443.13;;;16.39;100.00
74327;BME280;62745;51.060;13.786;2023-08-07T12:53:10;99446.50;;;16.51;100.00
74327;BME280;62745;51.060;13.786;2023-08-07T12:55:36;99429.06;;;16.59;100.00
74327;BME280;62745;51.060;13.786;2023-08-07T12:58:01;99463.75;;;16.94;100.00
74327;BME280;62745;51.060;13.786;2023-08-07T13:00:26;99436.16;;;16.87;100.00
74327;BME280;62745;51.060;13.786;2023-08-07T13:02:52;99453.13;;;17.09;100.00
74327;BME280;62745;51.060;13.786;2023-08-07T13:05:19;99430.22;;;16.85;100.00
74327;BME280;62745;51.060;13.786;2023-08-07T13:07:46;99446.97;;;16.65;100.00
74327;BME280;62745;51.060;13.786;2023-08-07T13:10:14;99475.97;;;16.58;100.00
74327;BME280;62745;51.060;13.786;2023-08-07T13:12:41;99460.09;;;16.62;100.00
74327;BME280;62745;51.060;13.786;2023-08-07T13:15:08;99443.75;;;16.46;100.00
74327;BME280;62745;51.060;13.786;2023-08-07T13:17:35;99479.53;;;16.80;100.00
74327;BME280;62745;51.060;13.786;2023-08-07T13:20:01;99448.72;;;16.98;100.00
74327;BME280;62745;51.060;13.786;2023-08-07T13:22:28;99458.25;;;17.33;100.00
74327;BME280;62745;51.060;13.786;2023-08-07T13:24:53;99457.31;;;17.49;100.00
74327;BME280;62745;51.060;13.786;2023-08-07T13:27:18;99440.63;;;17.57;100.00
74327;BME280;62745;51.060;13.786;2023-08-07T13:29:44;99444.63;;;18.24;100.00